Terminal Aerodrome Forecast
Issued by NWS

Home | Current Version | Previous Version | Text Only | Print | Product List | Glossary On
Versions: 1 2 3 4 5 6 7 8 9 10 11 12 13 14 15 16 17 18 19 20 21 22
205
FTUS42 KMLB 191858 AAB
TAFISM
TAF AMD
KISM 191858Z 1919/2018 35009KT P6SM FEW035
     FM200200 05004KT P6SM SKC
     FM200800 VRB02KT 4SM BR FEW008
     FM201300 03005KT P6SM FEW025
     FM201500 06007KT P6SM FEW035=

USA.gov is the U.S. government's official web portal to all federal, state and local government web resources and services.